Terminal Aerodrome Forecast
Issued by NWS Corpus Christi, TX

Home | Current Version | Previous Version | Text Only | Print | Product List | Glossary On
Versions: 1 2 3 4 5 6 7 8 9 10 11 12 13 14 15 16 17 18 19 20
000
FTUS44 KCRP 162300
TAFCRP
TAF
KCRP 162328Z 1700/1724 14011KT P6SM VCSH SCT025 BKN035
      TEMPO 1700/1702 VRB15G25KT 4SM -TSRA BKN025CB
     FM170700 VRB06KT P6SM VCSH BKN015 OVC100
      TEMPO 1710/1714 5SM -SHRA BR
     FM171400 14010KT P6SM VCTS BKN025CB
     FM171900 15011KT P6SM VCTS SCT028CB BKN040 PROB30 1719/1724 4SM
      TSRA BKN028CB=

USA.gov is the U.S. government's official web portal to all federal, state and local government web resources and services.